Time;durP1;ratioP1;P1;durP2;ratioP2;P2;SDS_P1;SDS_P2;PMS_P1;PMS_P2;Temp;Humidity;BMP_temperature;BMP_pressure;BME280_temperature;BME280_humidity;BME280_pressure;Samples;Min_cycle;Max_cycle;Signal;HPM_P1;HPM_P2
2024/03/28 00:00:14;;;;;;;0.4;0.4;;;;;;;;;;;;;
2024/03/28 00:02:39;;;;;;;0.4;0.4;;;;;;;;;;;;;
2024/03/28 00:05:04;;;;;;;0.5;0.4;;;;;;;;;;;;;
2024/03/28 00:07:29;;;;;;;0.5;0.5;;;;;;;;;;;;;
2024/03/28 00:09:54;;;;;;;0.9;0.5;;;;;;;;;;;;;
2024/03/28 00:12:20;;;;;;;0.4;0.4;;;;;;;;;;;;;
2024/03/28 00:14:45;;;;;;;0.5;0.5;;;;;;;;;;;;;
2024/03/28 00:17:10;;;;;;;1.8;0.4;;;;;;;;;;;;;
2024/03/28 00:19:35;;;;;;;1.4;0.8;;;;;;;;;;;;;
2024/03/28 00:22:00;;;;;;;0.9;0.8;;;;;;;;;;;;;
2024/03/28 00:24:25;;;;;;;2.1;1.4;;;;;;;;;;;;;
2024/03/28 00:26:50;;;;;;;1.1;1;;;;;;;;;;;;;
2024/03/28 00:29:15;;;;;;;1.5;0.9;;;;;;;;;;;;;
2024/03/28 00:31:40;;;;;;;1.6;1.1;;;;;;;;;;;;;
2024/03/28 00:34:05;;;;;;;1.5;1.1;;;;;;;;;;;;;
2024/03/28 00:36:30;;;;;;;1.2;1.1;;;;;;;;;;;;;
2024/03/28 00:38:55;;;;;;;1.1;1.1;;;;;;;;;;;;;
2024/03/28 00:41:20;;;;;;;1.8;1.1;;;;;;;;;;;;;
2024/03/28 00:43:45;;;;;;;2;1.4;;;;;;;;;;;;;
2024/03/28 00:46:11;;;;;;;2.3;1.5;;;;;;;;;;;;;
2024/03/28 00:48:36;;;;;;;2.2;1.6;;;;;;;;;;;;;
2024/03/28 00:51:01;;;;;;;1.9;1.6;;;;;;;;;;;;;
2024/03/28 00:53:26;;;;;;;1.3;1.2;;;;;;;;;;;;;
2024/03/28 00:55:51;;;;;;;1.8;1.3;;;;;;;;;;;;;
2024/03/28 00:58:16;;;;;;;1.5;1;;;;;;;;;;;;;
2024/03/28 01:00:42;;;;;;;1.1;1;;;;;;;;;;;;;
2024/03/28 01:03:07;;;;;;;0.9;0.7;;;;;;;;;;;;;
2024/03/28 01:05:32;;;;;;;0.7;0.7;;;;;;;;;;;;;
2024/03/28 01:07:57;;;;;;;0.7;0.7;;;;;;;;;;;;;
2024/03/28 01:10:22;;;;;;;1;0.9;;;;;;;;;;;;;
2024/03/28 01:12:47;;;;;;;1.1;0.6;;;;;;;;;;;;;
2024/03/28 01:15:12;;;;;;;1.2;0.8;;;;;;;;;;;;;
2024/03/28 01:17:37;;;;;;;0.8;0.8;;;;;;;;;;;;;
2024/03/28 01:20:03;;;;;;;0.8;0.8;;;;;;;;;;;;;
2024/03/28 01:22:28;;;;;;;1.1;0.9;;;;;;;;;;;;;
2024/03/28 01:24:53;;;;;;;0.9;0.9;;;;;;;;;;;;;
2024/03/28 01:27:18;;;;;;;0.9;0.7;;;;;;;;;;;;;
2024/03/28 01:29:43;;;;;;;0.8;0.6;;;;;;;;;;;;;
2024/03/28 01:32:08;;;;;;;0.7;0.7;;;;;;;;;;;;;
2024/03/28 01:34:33;;;;;;;0.6;0.6;;;;;;;;;;;;;
2024/03/28 01:36:58;;;;;;;1;0.6;;;;;;;;;;;;;
2024/03/28 01:39:23;;;;;;;1.1;0.6;;;;;;;;;;;;;
2024/03/28 01:41:49;;;;;;;0.7;0.7;;;;;;;;;;;;;
2024/03/28 01:44:14;;;;;;;0.7;0.7;;;;;;;;;;;;;
2024/03/28 01:46:40;;;;;;;0.6;0.6;;;;;;;;;;;;;
2024/03/28 01:49:04;;;;;;;0.4;0.4;;;;;;;;;;;;;
2024/03/28 01:51:29;;;;;;;0.3;0.3;;;;;;;;;;;;;
2024/03/28 01:53:54;;;;;;;0.4;0.4;;;;;;;;;;;;;
2024/03/28 01:56:19;;;;;;;0.9;0.4;;;;;;;;;;;;;
2024/03/28 01:58:44;;;;;;;0.3;0.3;;;;;;;;;;;;;
2024/03/28 02:01:09;;;;;;;0.4;0.4;;;;;;;;;;;;;
2024/03/28 02:03:34;;;;;;;0.5;0.5;;;;;;;;;;;;;
2024/03/28 02:05:59;;;;;;;0.3;0.3;;;;;;;;;;;;;
2024/03/28 02:08:24;;;;;;;0.6;0.6;;;;;;;;;;;;;
2024/03/28 02:10:50;;;;;;;0.6;0.5;;;;;;;;;;;;;
2024/03/28 02:13:15;;;;;;;0.4;0.4;;;;;;;;;;;;;
2024/03/28 02:15:40;;;;;;;0.3;0.3;;;;;;;;;;;;;
2024/03/28 02:18:05;;;;;;;0.3;0.3;;;;;;;;;;;;;
2024/03/28 02:20:30;;;;;;;0.4;0.4;;;;;;;;;;;;;
2024/03/28 02:22:55;;;;;;;0.4;0.4;;;;;;;;;;;;;
2024/03/28 02:25:20;;;;;;;0.7;0.5;;;;;;;;;;;;;
2024/03/28 02:27:45;;;;;;;0.4;0.4;;;;;;;;;;;;;
2024/03/28 02:30:11;;;;;;;0.8;0.4;;;;;;;;;;;;;
2024/03/28 02:32:35;;;;;;;0.5;0.4;;;;;;;;;;;;;
2024/03/28 02:35:00;;;;;;;0.4;0.4;;;;;;;;;;;;;
2024/03/28 02:37:26;;;;;;;0.4;0.4;;;;;;;;;;;;;
2024/03/28 02:39:51;;;;;;;0.5;0.5;;;;;;;;;;;;;
2024/03/28 02:42:16;;;;;;;0.4;0.4;;;;;;;;;;;;;
2024/03/28 02:44:41;;;;;;;0.5;0.5;;;;;;;;;;;;;
2024/03/28 02:47:06;;;;;;;0.7;0.7;;;;;;;;;;;;;
2024/03/28 02:49:31;;;;;;;0.4;0.4;;;;;;;;;;;;;
2024/03/28 02:51:56;;;;;;;0.5;0.5;;;;;;;;;;;;;
2024/03/28 02:54:21;;;;;;;0.5;0.5;;;;;;;;;;;;;
2024/03/28 02:56:47;;;;;;;0.4;0.4;;;;;;;;;;;;;
2024/03/28 02:59:12;;;;;;;0.4;0.4;;;;;;;;;;;;;
2024/03/28 03:01:37;;;;;;;0.5;0.5;;;;;;;;;;;;;
2024/03/28 03:04:02;;;;;;;0.4;0.4;;;;;;;;;;;;;
2024/03/28 03:06:28;;;;;;;1.5;0.8;;;;;;;;;;;;;
2024/03/28 03:08:52;;;;;;;0.8;0.8;;;;;;;;;;;;;
2024/03/28 03:11:17;;;;;;;1.7;0.9;;;;;;;;;;;;;
2024/03/28 03:13:42;;;;;;;0.8;0.8;;;;;;;;;;;;;
2024/03/28 03:16:07;;;;;;;0.7;0.7;;;;;;;;;;;;;
2024/03/28 03:18:34;;;;;;;0.4;0.4;;;;;;;;;;;;;
2024/03/28 03:20:57;;;;;;;0.5;0.5;;;;;;;;;;;;;
2024/03/28 03:23:23;;;;;;;0.5;0.5;;;;;;;;;;;;;
2024/03/28 03:25:59;;;;;;;0.4;0.4;;;;;;;;;;;;;
2024/03/28 03:35:28;;;;;;;0.6;0.6;;;;;;;;;;;;;
2024/03/28 03:37:53;;;;;;;1.1;1;;;;;;;;;;;;;
2024/03/28 03:40:18;;;;;;;0.6;0.5;;;;;;;;;;;;;
2024/03/28 03:42:43;;;;;;;19;10.5;;;;;;;;;;;;;
2024/03/28 03:45:08;;;;;;;5.2;3.2;;;;;;;;;;;;;
2024/03/28 03:47:34;;;;;;;0.4;0.4;;;;;;;;;;;;;
2024/03/28 03:49:59;;;;;;;0.4;0.4;;;;;;;;;;;;;
2024/03/28 03:52:24;;;;;;;0.9;0.3;;;;;;;;;;;;;
2024/03/28 03:54:49;;;;;;;0.4;0.4;;;;;;;;;;;;;
2024/03/28 03:57:14;;;;;;;0.5;0.5;;;;;;;;;;;;;
2024/03/28 03:59:40;;;;;;;0.4;0.4;;;;;;;;;;;;;
2024/03/28 04:02:32;;;;;;;1.8;0.6;;;;;;;;;;;;;
2024/03/28 04:04:56;;;;;;;1;0.4;;;;;;;;;;;;;
2024/03/28 04:07:21;;;;;;;0.5;0.5;;;;;;;;;;;;;
2024/03/28 04:09:47;;;;;;;0.4;0.4;;;;;;;;;;;;;
2024/03/28 04:14:44;;;;;;;0.7;0.7;;;;;;;;;;;;;
2024/03/28 04:17:09;;;;;;;0.8;0.7;;;;;;;;;;;;;
2024/03/28 04:19:35;;;;;;;0.8;0.6;;;;;;;;;;;;;
2024/03/28 04:22:00;;;;;;;0.8;0.8;;;;;;;;;;;;;
2024/03/28 04:24:25;;;;;;;0.6;0.6;;;;;;;;;;;;;
2024/03/28 04:26:50;;;;;;;0.8;0.8;;;;;;;;;;;;;
2024/03/28 04:29:15;;;;;;;0.8;0.8;;;;;;;;;;;;;
2024/03/28 04:31:40;;;;;;;0.8;0.8;;;;;;;;;;;;;
2024/03/28 04:34:05;;;;;;;1.6;0.8;;;;;;;;;;;;;
2024/03/28 04:36:30;;;;;;;1.4;1.2;;;;;;;;;;;;;
2024/03/28 04:38:55;;;;;;;3;1.8;;;;;;;;;;;;;
2024/03/28 04:41:21;;;;;;;1.9;1.4;;;;;;;;;;;;;
2024/03/28 04:43:46;;;;;;;1.9;1.2;;;;;;;;;;;;;
2024/03/28 04:46:11;;;;;;;4.5;1.4;;;;;;;;;;;;;
2024/03/28 04:48:37;;;;;;;1.1;0.8;;;;;;;;;;;;;
2024/03/28 04:51:01;;;;;;;1.1;1;;;;;;;;;;;;;
2024/03/28 04:53:26;;;;;;;1.6;0.9;;;;;;;;;;;;;
2024/03/28 04:55:51;;;;;;;0.9;0.9;;;;;;;;;;;;;
2024/03/28 04:58:17;;;;;;;0.8;0.8;;;;;;;;;;;;;
2024/03/28 05:00:42;;;;;;;1.2;1;;;;;;;;;;;;;
2024/03/28 05:03:07;;;;;;;1.3;1;;;;;;;;;;;;;
2024/03/28 05:05:32;;;;;;;1.5;1.1;;;;;;;;;;;;;
2024/03/28 05:07:57;;;;;;;36;30.5;;;;;;;;;;;;;
2024/03/28 05:10:22;;;;;;;57.4;51.9;;;;;;;;;;;;;
2024/03/28 05:12:48;;;;;;;0.8;0.8;;;;;;;;;;;;;
2024/03/28 05:15:12;;;;;;;1.8;0.9;;;;;;;;;;;;;
2024/03/28 05:17:38;;;;;;;7.3;6.8;;;;;;;;;;;;;
2024/03/28 05:20:03;;;;;;;0.8;0.8;;;;;;;;;;;;;
2024/03/28 05:22:28;;;;;;;1.4;1.2;;;;;;;;;;;;;
2024/03/28 05:24:55;;;;;;;0.9;0.9;;;;;;;;;;;;;
2024/03/28 05:27:18;;;;;;;0.9;0.9;;;;;;;;;;;;;
2024/03/28 05:29:43;;;;;;;2;1.6;;;;;;;;;;;;;
2024/03/28 05:32:09;;;;;;;1.6;1.3;;;;;;;;;;;;;
2024/03/28 05:34:34;;;;;;;1.3;1.1;;;;;;;;;;;;;
2024/03/28 05:36:59;;;;;;;1.5;1.1;;;;;;;;;;;;;
2024/03/28 05:39:24;;;;;;;1.7;1.3;;;;;;;;;;;;;
2024/03/28 05:41:49;;;;;;;3.1;1.8;;;;;;;;;;;;;
2024/03/28 05:44:14;;;;;;;3;1.9;;;;;;;;;;;;;
2024/03/28 05:46:39;;;;;;;1.9;1.7;;;;;;;;;;;;;
2024/03/28 05:49:05;;;;;;;1.5;1.4;;;;;;;;;;;;;
2024/03/28 05:51:30;;;;;;;2.1;1.7;;;;;;;;;;;;;
2024/03/28 05:53:55;;;;;;;1.4;1.2;;;;;;;;;;;;;
2024/03/28 05:56:20;;;;;;;1.1;1;;;;;;;;;;;;;
2024/03/28 05:58:45;;;;;;;3.1;1.5;;;;;;;;;;;;;
2024/03/28 06:01:10;;;;;;;4.8;2.8;;;;;;;;;;;;;
2024/03/28 06:03:35;;;;;;;5.3;1.5;;;;;;;;;;;;;
2024/03/28 06:06:01;;;;;;;1.5;1.1;;;;;;;;;;;;;
2024/03/28 06:08:25;;;;;;;1.3;0.9;;;;;;;;;;;;;
2024/03/28 06:10:51;;;;;;;1;0.9;;;;;;;;;;;;;
2024/03/28 06:13:16;;;;;;;1;0.8;;;;;;;;;;;;;
2024/03/28 06:15:41;;;;;;;1.3;0.9;;;;;;;;;;;;;
2024/03/28 06:18:06;;;;;;;1.1;0.9;;;;;;;;;;;;;
2024/03/28 06:20:31;;;;;;;1.1;1;;;;;;;;;;;;;
2024/03/28 06:22:56;;;;;;;2.6;1;;;;;;;;;;;;;
2024/03/28 06:25:22;;;;;;;1.6;1.2;;;;;;;;;;;;;
2024/03/28 06:27:47;;;;;;;1.1;1;;;;;;;;;;;;;
2024/03/28 06:30:12;;;;;;;0.7;0.7;;;;;;;;;;;;;
2024/03/28 06:32:37;;;;;;;2;0.7;;;;;;;;;;;;;
2024/03/28 06:35:02;;;;;;;1.2;0.9;;;;;;;;;;;;;
2024/03/28 06:37:27;;;;;;;1;1;;;;;;;;;;;;;
2024/03/28 06:39:54;;;;;;;0.8;0.8;;;;;;;;;;;;;
2024/03/28 06:42:17;;;;;;;1.4;1;;;;;;;;;;;;;
2024/03/28 06:44:42;;;;;;;1.4;0.8;;;;;;;;;;;;;
2024/03/28 06:47:07;;;;;;;0.4;0.4;;;;;;;;;;;;;
2024/03/28 06:49:32;;;;;;;0.9;0.5;;;;;;;;;;;;;
2024/03/28 06:51:57;;;;;;;0.4;0.4;;;;;;;;;;;;;
2024/03/28 06:54:22;;;;;;;0.7;0.7;;;;;;;;;;;;;
2024/03/28 06:56:48;;;;;;;0.5;0.5;;;;;;;;;;;;;
2024/03/28 06:59:13;;;;;;;0.6;0.6;;;;;;;;;;;;;
2024/03/28 07:01:38;;;;;;;2.2;0.6;;;;;;;;;;;;;
2024/03/28 07:04:03;;;;;;;1;0.4;;;;;;;;;;;;;
2024/03/28 07:06:28;;;;;;;2.8;1.4;;;;;;;;;;;;;
2024/03/28 07:08:53;;;;;;;2.2;1.2;;;;;;;;;;;;;
2024/03/28 07:11:18;;;;;;;4.9;1.6;;;;;;;;;;;;;
2024/03/28 07:13:43;;;;;;;5.2;1.2;;;;;;;;;;;;;
2024/03/28 07:16:11;;;;;;;2;0.9;;;;;;;;;;;;;
2024/03/28 07:18:36;;;;;;;1.4;0.9;;;;;;;;;;;;;
2024/03/28 07:21:02;;;;;;;3.7;1.7;;;;;;;;;;;;;
2024/03/28 07:23:27;;;;;;;5.3;1.7;;;;;;;;;;;;;
2024/03/28 07:25:52;;;;;;;2.6;0.8;;;;;;;;;;;;;
2024/03/28 07:28:17;;;;;;;0.9;0.6;;;;;;;;;;;;;
2024/03/28 07:30:42;;;;;;;2.5;0.7;;;;;;;;;;;;;
2024/03/28 07:33:07;;;;;;;0.5;0.5;;;;;;;;;;;;;
2024/03/28 07:35:32;;;;;;;0.6;0.6;;;;;;;;;;;;;
2024/03/28 07:37:58;;;;;;;0.8;0.6;;;;;;;;;;;;;
2024/03/28 07:40:23;;;;;;;2.3;0.9;;;;;;;;;;;;;
2024/03/28 07:42:48;;;;;;;1.6;0.8;;;;;;;;;;;;;
2024/03/28 07:45:13;;;;;;;3.6;1;;;;;;;;;;;;;
2024/03/28 07:47:39;;;;;;;1.6;0.7;;;;;;;;;;;;;
2024/03/28 07:50:03;;;;;;;6.4;0.9;;;;;;;;;;;;;
2024/03/28 07:52:28;;;;;;;2.9;0.7;;;;;;;;;;;;;
2024/03/28 07:54:54;;;;;;;1.6;0.5;;;;;;;;;;;;;
2024/03/28 07:57:19;;;;;;;0.5;0.5;;;;;;;;;;;;;
2024/03/28 07:59:44;;;;;;;0.3;0.3;;;;;;;;;;;;;
2024/03/28 08:02:09;;;;;;;1.5;0.6;;;;;;;;;;;;;
2024/03/28 08:04:34;;;;;;;0.8;0.5;;;;;;;;;;;;;
2024/03/28 08:06:59;;;;;;;2.3;0.6;;;;;;;;;;;;;
2024/03/28 08:09:26;;;;;;;1;0.6;;;;;;;;;;;;;
2024/03/28 08:11:50;;;;;;;0.5;0.5;;;;;;;;;;;;;
2024/03/28 08:14:15;;;;;;;1.3;0.5;;;;;;;;;;;;;
2024/03/28 08:16:41;;;;;;;0.5;0.5;;;;;;;;;;;;;
2024/03/28 08:19:06;;;;;;;1.1;0.7;;;;;;;;;;;;;
2024/03/28 08:21:30;;;;;;;3.1;0.9;;;;;;;;;;;;;
2024/03/28 08:23:55;;;;;;;0.6;0.5;;;;;;;;;;;;;
2024/03/28 08:26:21;;;;;;;0.4;0.4;;;;;;;;;;;;;
2024/03/28 08:28:46;;;;;;;1.1;0.3;;;;;;;;;;;;;
2024/03/28 08:31:12;;;;;;;0.7;0.3;;;;;;;;;;;;;
2024/03/28 08:33:36;;;;;;;0.4;0.4;;;;;;;;;;;;;
2024/03/28 08:36:01;;;;;;;0.6;0.3;;;;;;;;;;;;;
2024/03/28 08:38:27;;;;;;;1.2;0.3;;;;;;;;;;;;;
2024/03/28 08:40:51;;;;;;;0.4;0.2;;;;;;;;;;;;;
2024/03/28 08:43:17;;;;;;;0.4;0.3;;;;;;;;;;;;;
2024/03/28 08:45:42;;;;;;;0.5;0.3;;;;;;;;;;;;;
2024/03/28 08:48:08;;;;;;;1.2;0.3;;;;;;;;;;;;;
2024/03/28 08:50:32;;;;;;;0.5;0.3;;;;;;;;;;;;;
2024/03/28 08:52:57;;;;;;;0.9;0.3;;;;;;;;;;;;;
2024/03/28 08:55:23;;;;;;;1;0.6;;;;;;;;;;;;;
2024/03/28 08:57:49;;;;;;;0.7;0.3;;;;;;;;;;;;;
2024/03/28 09:00:13;;;;;;;0.5;0.4;;;;;;;;;;;;;
2024/03/28 09:02:38;;;;;;;0.9;0.3;;;;;;;;;;;;;
2024/03/28 09:05:03;;;;;;;1.2;0.4;;;;;;;;;;;;;
2024/03/28 09:07:28;;;;;;;1.8;0.6;;;;;;;;;;;;;
2024/03/28 09:09:53;;;;;;;2.8;0.8;;;;;;;;;;;;;
2024/03/28 09:12:18;;;;;;;0.7;0.5;;;;;;;;;;;;;
2024/03/28 09:14:43;;;;;;;2.2;0.6;;;;;;;;;;;;;
2024/03/28 09:17:08;;;;;;;0.8;0.4;;;;;;;;;;;;;
2024/03/28 09:19:33;;;;;;;0.4;0.3;;;;;;;;;;;;;
2024/03/28 09:22:06;;;;;;;1.4;0.3;;;;;;;;;;;;;
2024/03/28 09:24:32;;;;;;;0.3;0.3;;;;;;;;;;;;;
2024/03/28 09:26:56;;;;;;;0.3;0.3;;;;;;;;;;;;;
2024/03/28 09:29:21;;;;;;;0.7;0.4;;;;;;;;;;;;;
2024/03/28 09:31:48;;;;;;;0.2;0.2;;;;;;;;;;;;;
2024/03/28 09:34:11;;;;;;;1.9;0.4;;;;;;;;;;;;;
2024/03/28 09:36:36;;;;;;;0.3;0.3;;;;;;;;;;;;;
2024/03/28 09:39:01;;;;;;;0.8;0.5;;;;;;;;;;;;;
2024/03/28 09:41:27;;;;;;;0.3;0.3;;;;;;;;;;;;;
2024/03/28 09:43:51;;;;;;;1.3;0.2;;;;;;;;;;;;;
2024/03/28 09:46:17;;;;;;;0.7;0.2;;;;;;;;;;;;;
2024/03/28 09:48:42;;;;;;;0.7;0.4;;;;;;;;;;;;;
2024/03/28 09:51:07;;;;;;;0.9;0.4;;;;;;;;;;;;;
2024/03/28 09:53:32;;;;;;;0.2;0.2;;;;;;;;;;;;;
2024/03/28 09:55:57;;;;;;;2.1;0.6;;;;;;;;;;;;;
2024/03/28 09:58:22;;;;;;;1.2;0.8;;;;;;;;;;;;;
2024/03/28 10:00:47;;;;;;;2.9;1.1;;;;;;;;;;;;;
2024/03/28 10:03:12;;;;;;;7.1;4.2;;;;;;;;;;;;;
2024/03/28 10:05:37;;;;;;;30.1;18.1;;;;;;;;;;;;;
2024/03/28 10:08:02;;;;;;;15.7;10.9;;;;;;;;;;;;;
2024/03/28 10:10:27;;;;;;;3.7;3.1;;;;;;;;;;;;;
2024/03/28 10:12:54;;;;;;;3.6;2.4;;;;;;;;;;;;;
2024/03/28 10:15:19;;;;;;;5.1;2.5;;;;;;;;;;;;;
2024/03/28 10:17:43;;;;;;;2.7;2;;;;;;;;;;;;;
2024/03/28 10:20:09;;;;;;;3.3;1.5;;;;;;;;;;;;;
2024/03/28 10:22:41;;;;;;;4.4;1.9;;;;;;;;;;;;;
2024/03/28 10:24:58;;;;;;;2;1.5;;;;;;;;;;;;;
2024/03/28 10:27:23;;;;;;;3.8;1.6;;;;;;;;;;;;;
2024/03/28 10:29:48;;;;;;;2.6;1.5;;;;;;;;;;;;;
2024/03/28 10:32:14;;;;;;;1.9;1.2;;;;;;;;;;;;;
2024/03/28 10:34:39;;;;;;;2.6;1.6;;;;;;;;;;;;;
2024/03/28 10:37:04;;;;;;;0.9;0.6;;;;;;;;;;;;;
2024/03/28 10:39:29;;;;;;;2.7;1.5;;;;;;;;;;;;;
2024/03/28 10:41:54;;;;;;;2.3;2;;;;;;;;;;;;;
2024/03/28 10:44:19;;;;;;;8.2;5.1;;;;;;;;;;;;;
2024/03/28 10:46:44;;;;;;;1.5;1;;;;;;;;;;;;;
2024/03/28 10:49:09;;;;;;;0.5;0.5;;;;;;;;;;;;;
2024/03/28 10:51:34;;;;;;;0.4;0.4;;;;;;;;;;;;;
2024/03/28 10:54:01;;;;;;;0.2;0.2;;;;;;;;;;;;;
2024/03/28 10:56:24;;;;;;;0.7;0.5;;;;;;;;;;;;;
2024/03/28 10:58:50;;;;;;;0.5;0.5;;;;;;;;;;;;;
2024/03/28 11:01:15;;;;;;;0.5;0.5;;;;;;;;;;;;;
2024/03/28 11:03:40;;;;;;;1.2;0.9;;;;;;;;;;;;;
2024/03/28 11:06:05;;;;;;;0.8;0.6;;;;;;;;;;;;;
2024/03/28 11:08:30;;;;;;;0.7;0.7;;;;;;;;;;;;;
2024/03/28 11:10:55;;;;;;;1.2;0.7;;;;;;;;;;;;;
2024/03/28 11:13:21;;;;;;;0.7;0.6;;;;;;;;;;;;;
2024/03/28 11:15:46;;;;;;;0.4;0.4;;;;;;;;;;;;;
2024/03/28 11:18:11;;;;;;;0.5;0.4;;;;;;;;;;;;;
2024/03/28 11:20:36;;;;;;;3.4;2;;;;;;;;;;;;;
2024/03/28 11:23:01;;;;;;;0.6;0.6;;;;;;;;;;;;;
2024/03/28 11:25:26;;;;;;;0.5;0.5;;;;;;;;;;;;;
2024/03/28 11:27:51;;;;;;;1.8;1.3;;;;;;;;;;;;;
2024/03/28 11:30:17;;;;;;;2.8;1.2;;;;;;;;;;;;;
2024/03/28 11:32:42;;;;;;;1.8;0.8;;;;;;;;;;;;;
2024/03/28 11:35:07;;;;;;;3.3;1.3;;;;;;;;;;;;;
2024/03/28 11:37:32;;;;;;;10;3.7;;;;;;;;;;;;;
2024/03/28 11:39:57;;;;;;;5.9;2.1;;;;;;;;;;;;;
2024/03/28 11:42:22;;;;;;;23;8.2;;;;;;;;;;;;;
2024/03/28 11:44:47;;;;;;;9;4.2;;;;;;;;;;;;;
2024/03/28 11:47:12;;;;;;;3.8;1.4;;;;;;;;;;;;;
2024/03/28 11:49:38;;;;;;;6.3;3;;;;;;;;;;;;;
2024/03/28 11:52:02;;;;;;;4.1;2;;;;;;;;;;;;;
2024/03/28 11:54:27;;;;;;;5.2;2.1;;;;;;;;;;;;;
2024/03/28 11:56:53;;;;;;;1.2;1;;;;;;;;;;;;;
2024/03/28 11:59:18;;;;;;;3.3;2.2;;;;;;;;;;;;;
2024/03/28 12:01:43;;;;;;;2.7;2.1;;;;;;;;;;;;;
2024/03/28 12:04:08;;;;;;;1.3;1;;;;;;;;;;;;;
2024/03/28 12:06:33;;;;;;;4.6;2.7;;;;;;;;;;;;;
2024/03/28 12:08:58;;;;;;;5.8;2.8;;;;;;;;;;;;;
2024/03/28 12:11:23;;;;;;;2.9;1.8;;;;;;;;;;;;;
2024/03/28 12:13:48;;;;;;;1.1;1;;;;;;;;;;;;;
2024/03/28 12:16:14;;;;;;;0.9;0.8;;;;;;;;;;;;;
2024/03/28 12:18:41;;;;;;;1;0.8;;;;;;;;;;;;;
2024/03/28 12:21:04;;;;;;;1.3;1.2;;;;;;;;;;;;;
2024/03/28 12:23:29;;;;;;;1.3;1.2;;;;;;;;;;;;;
2024/03/28 12:25:54;;;;;;;1.5;1.4;;;;;;;;;;;;;
2024/03/28 12:28:19;;;;;;;0.6;0.6;;;;;;;;;;;;;
2024/03/28 12:30:44;;;;;;;1.1;0.9;;;;;;;;;;;;;
2024/03/28 12:33:09;;;;;;;0.5;0.5;;;;;;;;;;;;;
2024/03/28 12:35:35;;;;;;;0.6;0.4;;;;;;;;;;;;;
2024/03/28 12:38:01;;;;;;;0.3;0.3;;;;;;;;;;;;;
2024/03/28 12:40:25;;;;;;;0.9;0.6;;;;;;;;;;;;;
2024/03/28 12:42:50;;;;;;;0.5;0.5;;;;;;;;;;;;;
2024/03/28 12:45:16;;;;;;;0.7;0.7;;;;;;;;;;;;;
2024/03/28 12:47:40;;;;;;;0.6;0.6;;;;;;;;;;;;;
2024/03/28 12:50:06;;;;;;;0.4;0.4;;;;;;;;;;;;;
2024/03/28 12:52:31;;;;;;;0.8;0.5;;;;;;;;;;;;;
2024/03/28 12:54:57;;;;;;;0.6;0.6;;;;;;;;;;;;;
2024/03/28 12:57:22;;;;;;;1;0.5;;;;;;;;;;;;;
2024/03/28 12:59:47;;;;;;;1.2;1.1;;;;;;;;;;;;;
2024/03/28 13:02:12;;;;;;;1.8;1.5;;;;;;;;;;;;;
2024/03/28 13:04:37;;;;;;;1.4;1.3;;;;;;;;;;;;;
2024/03/28 13:07:03;;;;;;;0.9;0.8;;;;;;;;;;;;;
2024/03/28 13:09:27;;;;;;;11.6;8.2;;;;;;;;;;;;;
2024/03/28 13:11:53;;;;;;;10.8;8.5;;;;;;;;;;;;;
2024/03/28 13:14:18;;;;;;;10.5;7;;;;;;;;;;;;;
2024/03/28 13:16:43;;;;;;;25.2;16.9;;;;;;;;;;;;;
2024/03/28 13:19:08;;;;;;;34.7;23.5;;;;;;;;;;;;;
2024/03/28 13:21:33;;;;;;;28.8;20;;;;;;;;;;;;;
2024/03/28 13:23:58;;;;;;;34.3;23.3;;;;;;;;;;;;;
2024/03/28 13:26:23;;;;;;;18.7;14.4;;;;;;;;;;;;;
2024/03/28 13:28:48;;;;;;;17.7;13.8;;;;;;;;;;;;;
2024/03/28 13:31:13;;;;;;;0.9;0.5;;;;;;;;;;;;;
2024/03/28 13:33:38;;;;;;;0.4;0.4;;;;;;;;;;;;;
2024/03/28 13:36:03;;;;;;;1.3;1;;;;;;;;;;;;;
2024/03/28 13:38:29;;;;;;;1.6;1.1;;;;;;;;;;;;;
2024/03/28 13:40:54;;;;;;;1.5;1.4;;;;;;;;;;;;;
2024/03/28 13:43:19;;;;;;;1;0.8;;;;;;;;;;;;;
2024/03/28 13:45:45;;;;;;;5.6;3.5;;;;;;;;;;;;;
2024/03/28 13:48:09;;;;;;;5.8;4.4;;;;;;;;;;;;;
2024/03/28 13:50:34;;;;;;;9.8;7.1;;;;;;;;;;;;;
2024/03/28 13:52:59;;;;;;;54.7;42.1;;;;;;;;;;;;;
2024/03/28 13:55:27;;;;;;;77.5;69.5;;;;;;;;;;;;;
2024/03/28 13:57:50;;;;;;;3.4;2.8;;;;;;;;;;;;;
2024/03/28 14:00:15;;;;;;;1;0.5;;;;;;;;;;;;;
2024/03/28 14:02:40;;;;;;;1;0.6;;;;;;;;;;;;;
2024/03/28 14:05:05;;;;;;;1.8;1.4;;;;;;;;;;;;;
2024/03/28 14:07:30;;;;;;;5.1;3.8;;;;;;;;;;;;;
2024/03/28 14:09:55;;;;;;;2;1.7;;;;;;;;;;;;;
2024/03/28 14:12:20;;;;;;;3.2;2.7;;;;;;;;;;;;;
2024/03/28 14:14:46;;;;;;;11.9;8.9;;;;;;;;;;;;;
2024/03/28 14:17:11;;;;;;;13.7;11.4;;;;;;;;;;;;;
2024/03/28 14:19:36;;;;;;;4.4;3.7;;;;;;;;;;;;;
2024/03/28 14:22:01;;;;;;;1.5;1.2;;;;;;;;;;;;;
2024/03/28 14:24:29;;;;;;;2.1;1.3;;;;;;;;;;;;;
2024/03/28 14:26:53;;;;;;;3.1;2.7;;;;;;;;;;;;;
2024/03/28 14:29:17;;;;;;;1.8;1;;;;;;;;;;;;;
2024/03/28 14:31:42;;;;;;;1.1;1;;;;;;;;;;;;;
2024/03/28 14:34:07;;;;;;;2.5;1.4;;;;;;;;;;;;;
2024/03/28 14:36:32;;;;;;;3.2;2.5;;;;;;;;;;;;;
2024/03/28 14:38:57;;;;;;;2.7;2;;;;;;;;;;;;;
2024/03/28 14:41:22;;;;;;;1.8;1.6;;;;;;;;;;;;;
2024/03/28 14:43:47;;;;;;;2.8;1.1;;;;;;;;;;;;;
2024/03/28 14:46:12;;;;;;;4.5;2.9;;;;;;;;;;;;;
2024/03/28 14:48:37;;;;;;;3.4;2.4;;;;;;;;;;;;;
2024/03/28 14:51:02;;;;;;;7.2;5.7;;;;;;;;;;;;;
2024/03/28 14:53:42;;;;;;;3.4;2.8;;;;;;;;;;;;;
2024/03/28 14:56:07;;;;;;;4.7;4.1;;;;;;;;;;;;;
2024/03/28 14:58:32;;;;;;;2.3;1.5;;;;;;;;;;;;;
2024/03/28 15:00:58;;;;;;;2.3;1.6;;;;;;;;;;;;;
2024/03/28 15:03:23;;;;;;;1.5;1.4;;;;;;;;;;;;;
2024/03/28 15:05:48;;;;;;;1.4;1.3;;;;;;;;;;;;;
2024/03/28 15:08:13;;;;;;;1.9;1.6;;;;;;;;;;;;;
2024/03/28 15:10:39;;;;;;;1.9;1.3;;;;;;;;;;;;;
2024/03/28 15:13:03;;;;;;;1.6;1.2;;;;;;;;;;;;;
2024/03/28 15:15:28;;;;;;;3.3;2.2;;;;;;;;;;;;;
2024/03/28 15:17:53;;;;;;;3.2;2.2;;;;;;;;;;;;;
2024/03/28 15:20:18;;;;;;;2.8;2.1;;;;;;;;;;;;;
2024/03/28 15:22:44;;;;;;;2.4;2.1;;;;;;;;;;;;;
2024/03/28 15:25:09;;;;;;;2.3;1.7;;;;;;;;;;;;;
2024/03/28 15:27:34;;;;;;;2.4;1.8;;;;;;;;;;;;;
2024/03/28 15:29:59;;;;;;;3;1.9;;;;;;;;;;;;;
2024/03/28 15:32:24;;;;;;;1.9;1.7;;;;;;;;;;;;;
2024/03/28 15:34:49;;;;;;;6.8;4.5;;;;;;;;;;;;;
2024/03/28 15:37:15;;;;;;;7.7;5.1;;;;;;;;;;;;;
2024/03/28 15:39:39;;;;;;;3.6;3.1;;;;;;;;;;;;;
2024/03/28 15:42:05;;;;;;;4.3;3.3;;;;;;;;;;;;;
2024/03/28 15:44:30;;;;;;;4.3;3.1;;;;;;;;;;;;;
2024/03/28 15:46:55;;;;;;;4.4;3.3;;;;;;;;;;;;;
2024/03/28 15:49:20;;;;;;;4.6;3.7;;;;;;;;;;;;;
2024/03/28 15:51:47;;;;;;;6.1;3.8;;;;;;;;;;;;;
2024/03/28 15:54:10;;;;;;;8.1;5.8;;;;;;;;;;;;;
2024/03/28 15:56:35;;;;;;;1.1;1;;;;;;;;;;;;;
2024/03/28 15:59:01;;;;;;;19.3;9.8;;;;;;;;;;;;;
2024/03/28 16:01:26;;;;;;;11;6.9;;;;;;;;;;;;;
2024/03/28 16:03:51;;;;;;;9.4;5.3;;;;;;;;;;;;;
2024/03/28 16:06:17;;;;;;;8.7;5.5;;;;;;;;;;;;;
2024/03/28 16:08:43;;;;;;;8.3;5.9;;;;;;;;;;;;;
2024/03/28 16:11:07;;;;;;;6.7;4.4;;;;;;;;;;;;;
2024/03/28 16:13:32;;;;;;;5;4;;;;;;;;;;;;;
2024/03/28 16:15:57;;;;;;;16.4;10.6;;;;;;;;;;;;;
2024/03/28 16:18:22;;;;;;;2.6;1.5;;;;;;;;;;;;;
2024/03/28 16:20:47;;;;;;;2.1;1.5;;;;;;;;;;;;;
2024/03/28 16:23:12;;;;;;;2.4;1.5;;;;;;;;;;;;;
2024/03/28 16:25:38;;;;;;;1.8;1.4;;;;;;;;;;;;;
2024/03/28 16:28:03;;;;;;;1.9;1.7;;;;;;;;;;;;;
2024/03/28 16:30:30;;;;;;;2.1;1.6;;;;;;;;;;;;;
2024/03/28 16:32:53;;;;;;;2;1.2;;;;;;;;;;;;;
2024/03/28 16:35:18;;;;;;;1.2;1.1;;;;;;;;;;;;;
2024/03/28 16:37:43;;;;;;;1.4;1.3;;;;;;;;;;;;;
2024/03/28 16:40:08;;;;;;;1.1;1;;;;;;;;;;;;;
2024/03/28 16:42:33;;;;;;;2.2;1.1;;;;;;;;;;;;;
2024/03/28 16:45:01;;;;;;;0.7;0.7;;;;;;;;;;;;;
2024/03/28 16:47:23;;;;;;;1.8;1.1;;;;;;;;;;;;;
2024/03/28 16:49:48;;;;;;;7.3;4.1;;;;;;;;;;;;;
2024/03/28 16:52:13;;;;;;;4.1;2.3;;;;;;;;;;;;;
2024/03/28 16:54:39;;;;;;;2.2;1.8;;;;;;;;;;;;;
2024/03/28 16:57:04;;;;;;;1.6;1.2;;;;;;;;;;;;;
2024/03/28 16:59:29;;;;;;;1.6;1.1;;;;;;;;;;;;;
2024/03/28 17:01:54;;;;;;;8.2;5;;;;;;;;;;;;;
2024/03/28 17:04:19;;;;;;;2.2;1.7;;;;;;;;;;;;;
2024/03/28 17:06:44;;;;;;;0.5;0.5;;;;;;;;;;;;;
2024/03/28 17:09:11;;;;;;;1;0.9;;;;;;;;;;;;;
2024/03/28 17:11:35;;;;;;;1.4;1.1;;;;;;;;;;;;;
2024/03/28 17:14:00;;;;;;;1.2;1.1;;;;;;;;;;;;;
2024/03/28 17:16:25;;;;;;;1.5;1.3;;;;;;;;;;;;;
2024/03/28 17:18:50;;;;;;;1.8;1.5;;;;;;;;;;;;;
2024/03/28 17:21:16;;;;;;;1.7;1.6;;;;;;;;;;;;;
2024/03/28 17:23:40;;;;;;;1.3;1.2;;;;;;;;;;;;;
2024/03/28 17:26:05;;;;;;;1.9;1.7;;;;;;;;;;;;;
2024/03/28 17:28:31;;;;;;;3.6;2.1;;;;;;;;;;;;;
2024/03/28 17:30:56;;;;;;;21.1;9.5;;;;;;;;;;;;;
2024/03/28 17:33:24;;;;;;;3.2;2.1;;;;;;;;;;;;;
2024/03/28 17:35:47;;;;;;;1.6;0.9;;;;;;;;;;;;;
2024/03/28 17:38:11;;;;;;;2.1;1.5;;;;;;;;;;;;;
2024/03/28 17:40:36;;;;;;;2.5;1.4;;;;;;;;;;;;;
2024/03/28 17:43:01;;;;;;;2;1.7;;;;;;;;;;;;;
2024/03/28 17:45:26;;;;;;;1.8;1.4;;;;;;;;;;;;;
2024/03/28 17:47:52;;;;;;;4.2;2.7;;;;;;;;;;;;;
2024/03/28 17:50:17;;;;;;;4;2.2;;;;;;;;;;;;;
2024/03/28 17:52:42;;;;;;;7.7;3.6;;;;;;;;;;;;;
2024/03/28 17:55:07;;;;;;;21.8;9;;;;;;;;;;;;;
2024/03/28 17:57:33;;;;;;;9.3;4.6;;;;;;;;;;;;;
2024/03/28 17:59:57;;;;;;;1.6;1.5;;;;;;;;;;;;;
2024/03/28 18:02:22;;;;;;;2.6;1.6;;;;;;;;;;;;;
2024/03/28 18:04:49;;;;;;;2.8;1.9;;;;;;;;;;;;;
2024/03/28 18:07:13;;;;;;;3.5;2.5;;;;;;;;;;;;;
2024/03/28 18:09:37;;;;;;;2.6;2.2;;;;;;;;;;;;;
2024/03/28 18:12:02;;;;;;;3.9;2.9;;;;;;;;;;;;;
2024/03/28 18:14:28;;;;;;;13.8;7.9;;;;;;;;;;;;;
2024/03/28 18:16:53;;;;;;;13.4;8.3;;;;;;;;;;;;;
2024/03/28 18:19:18;;;;;;;5;3.6;;;;;;;;;;;;;
2024/03/28 18:21:43;;;;;;;2.4;2.2;;;;;;;;;;;;;
2024/03/28 18:24:08;;;;;;;9;6.9;;;;;;;;;;;;;
2024/03/28 18:26:33;;;;;;;12.2;8.8;;;;;;;;;;;;;
2024/03/28 18:28:58;;;;;;;7.4;5.6;;;;;;;;;;;;;
2024/03/28 18:31:23;;;;;;;19.8;13.9;;;;;;;;;;;;;
2024/03/28 18:33:49;;;;;;;14.6;9.4;;;;;;;;;;;;;
2024/03/28 18:36:14;;;;;;;13.4;9.2;;;;;;;;;;;;;
2024/03/28 18:38:39;;;;;;;11.5;8;;;;;;;;;;;;;
2024/03/28 18:41:04;;;;;;;7.9;6.7;;;;;;;;;;;;;
2024/03/28 18:43:29;;;;;;;4.4;3.6;;;;;;;;;;;;;
2024/03/28 18:45:54;;;;;;;3.6;3.1;;;;;;;;;;;;;
2024/03/28 18:48:19;;;;;;;6;4.1;;;;;;;;;;;;;
2024/03/28 18:50:45;;;;;;;6.2;4.1;;;;;;;;;;;;;
2024/03/28 18:53:10;;;;;;;5.8;3.7;;;;;;;;;;;;;
2024/03/28 18:55:35;;;;;;;5.1;3.3;;;;;;;;;;;;;
2024/03/28 18:58:00;;;;;;;3.9;2.9;;;;;;;;;;;;;
2024/03/28 19:00:25;;;;;;;3.9;3;;;;;;;;;;;;;
2024/03/28 19:02:51;;;;;;;4.9;3.4;;;;;;;;;;;;;
2024/03/28 19:05:16;;;;;;;9.2;6.5;;;;;;;;;;;;;
2024/03/28 19:07:40;;;;;;;8.7;5.8;;;;;;;;;;;;;
2024/03/28 19:10:06;;;;;;;10.2;7.3;;;;;;;;;;;;;
2024/03/28 19:12:31;;;;;;;106.4;47.1;;;;;;;;;;;;;
2024/03/28 19:14:56;;;;;;;126.1;52.2;;;;;;;;;;;;;
2024/03/28 19:17:21;;;;;;;83.4;37;;;;;;;;;;;;;
2024/03/28 19:19:47;;;;;;;31.7;16.4;;;;;;;;;;;;;
2024/03/28 19:22:12;;;;;;;11.7;7.4;;;;;;;;;;;;;
2024/03/28 19:24:37;;;;;;;23;10.3;;;;;;;;;;;;;
2024/03/28 19:27:02;;;;;;;16.6;8.6;;;;;;;;;;;;;
2024/03/28 19:29:27;;;;;;;15.7;8.2;;;;;;;;;;;;;
2024/03/28 19:31:53;;;;;;;13.7;7.7;;;;;;;;;;;;;
2024/03/28 19:34:18;;;;;;;11.2;6.9;;;;;;;;;;;;;
2024/03/28 19:36:43;;;;;;;13.4;9.3;;;;;;;;;;;;;
2024/03/28 19:39:08;;;;;;;19;11.3;;;;;;;;;;;;;
2024/03/28 19:41:33;;;;;;;20.3;15.8;;;;;;;;;;;;;
2024/03/28 19:43:58;;;;;;;22.5;20.2;;;;;;;;;;;;;
2024/03/28 19:46:23;;;;;;;7.1;5;;;;;;;;;;;;;
2024/03/28 19:48:48;;;;;;;17.7;15;;;;;;;;;;;;;
2024/03/28 19:51:13;;;;;;;5.9;4.2;;;;;;;;;;;;;
2024/03/28 19:53:38;;;;;;;14;8.2;;;;;;;;;;;;;
2024/03/28 19:56:04;;;;;;;25;16.7;;;;;;;;;;;;;
2024/03/28 19:58:29;;;;;;;15.7;9.7;;;;;;;;;;;;;
2024/03/28 20:00:55;;;;;;;11.5;7.4;;;;;;;;;;;;;
2024/03/28 20:03:21;;;;;;;13.8;7.9;;;;;;;;;;;;;
2024/03/28 20:05:44;;;;;;;9.2;6.2;;;;;;;;;;;;;
2024/03/28 20:08:09;;;;;;;10;6.3;;;;;;;;;;;;;
2024/03/28 20:10:35;;;;;;;7.8;5.5;;;;;;;;;;;;;
2024/03/28 20:13:00;;;;;;;6.6;4.8;;;;;;;;;;;;;
2024/03/28 20:15:25;;;;;;;9.7;8.7;;;;;;;;;;;;;
2024/03/28 20:17:50;;;;;;;6.5;4.9;;;;;;;;;;;;;
2024/03/28 20:20:15;;;;;;;5.3;4;;;;;;;;;;;;;
2024/03/28 20:22:40;;;;;;;4.4;3.4;;;;;;;;;;;;;
2024/03/28 20:25:06;;;;;;;3.4;2.7;;;;;;;;;;;;;
2024/03/28 20:27:30;;;;;;;3.1;2.5;;;;;;;;;;;;;
2024/03/28 20:29:56;;;;;;;1.9;1.7;;;;;;;;;;;;;
2024/03/28 20:32:21;;;;;;;4.3;3.2;;;;;;;;;;;;;
2024/03/28 20:34:46;;;;;;;2.7;2.3;;;;;;;;;;;;;